sensor_id;sensor_type;location;lat;lon;timestamp;P1;durP1;ratioP1;P2;durP2;ratioP2
59093;SDS011;44880;52.814;18.270;2022-12-18T00:00:26;51.00;;;21.10;;
59093;SDS011;44880;52.814;18.270;2022-12-18T00:03:15;50.80;;;19.70;;
59093;SDS011;44880;52.814;18.270;2022-12-18T00:05:49;45.60;;;19.00;;
59093;SDS011;44880;52.814;18.270;2022-12-18T00:08:19;43.20;;;19.20;;
59093;SDS011;44880;52.814;18.270;2022-12-18T00:10:48;46.00;;;19.50;;
59093;SDS011;44880;52.814;18.270;2022-12-18T00:13:17;51.60;;;21.20;;
59093;SDS011;44880;52.814;18.270;2022-12-18T00:15:46;50.20;;;20.00;;
59093;SDS011;44880;52.814;18.270;2022-12-18T00:18:16;49.20;;;21.10;;
59093;SDS011;44880;52.814;18.270;2022-12-18T00:20:45;45.60;;;19.90;;
59093;SDS011;44880;52.814;18.270;2022-12-18T00:23:15;46.10;;;20.50;;
59093;SDS011;44880;52.814;18.270;2022-12-18T00:25:44;40.00;;;18.20;;
59093;SDS011;44880;52.814;18.270;2022-12-18T00:28:13;44.60;;;17.60;;
59093;SDS011;44880;52.814;18.270;2022-12-18T00:30:42;43.80;;;17.80;;
59093;SDS011;44880;52.814;18.270;2022-12-18T00:33:11;50.90;;;20.00;;
59093;SDS011;44880;52.814;18.270;2022-12-18T00:35:40;49.00;;;20.50;;
59093;SDS011;44880;52.814;18.270;2022-12-18T00:38:11;41.90;;;17.60;;
59093;SDS011;44880;52.814;18.270;2022-12-18T00:40:40;45.70;;;20.90;;
59093;SDS011;44880;52.814;18.270;2022-12-18T00:43:09;41.50;;;19.20;;
59093;SDS011;44880;52.814;18.270;2022-12-18T00:45:38;44.10;;;20.70;;
59093;SDS011;44880;52.814;18.270;2022-12-18T00:48:08;46.50;;;18.70;;
59093;SDS011;44880;52.814;18.270;2022-12-18T00:50:37;43.50;;;19.50;;
59093;SDS011;44880;52.814;18.270;2022-12-18T00:53:10;44.90;;;18.60;;
59093;SDS011;44880;52.814;18.270;2022-12-18T00:55:40;40.30;;;17.20;;
59093;SDS011;44880;52.814;18.270;2022-12-18T00:58:10;38.70;;;15.90;;
59093;SDS011;44880;52.814;18.270;2022-12-18T01:00:40;44.10;;;18.60;;
59093;SDS011;44880;52.814;18.270;2022-12-18T01:03:13;40.60;;;18.50;;
59093;SDS011;44880;52.814;18.270;2022-12-18T01:05:44;43.00;;;17.80;;
59093;SDS011;44880;52.814;18.270;2022-12-18T01:08:13;46.80;;;18.60;;
59093;SDS011;44880;52.814;18.270;2022-12-18T01:10:44;45.40;;;18.00;;
59093;SDS011;44880;52.814;18.270;2022-12-18T01:13:13;45.70;;;19.80;;
59093;SDS011;44880;52.814;18.270;2022-12-18T01:15:48;41.60;;;16.90;;
59093;SDS011;44880;52.814;18.270;2022-12-18T01:18:17;42.90;;;16.70;;
59093;SDS011;44880;52.814;18.270;2022-12-18T01:20:46;41.00;;;16.70;;
59093;SDS011;44880;52.814;18.270;2022-12-18T01:23:15;38.80;;;16.20;;
59093;SDS011;44880;52.814;18.270;2022-12-18T01:25:44;39.00;;;18.00;;
59093;SDS011;44880;52.814;18.270;2022-12-18T01:28:14;48.80;;;19.40;;
59093;SDS011;44880;52.814;18.270;2022-12-18T01:30:43;43.10;;;19.60;;
59093;SDS011;44880;52.814;18.270;2022-12-18T01:33:13;45.60;;;19.10;;
59093;SDS011;44880;52.814;18.270;2022-12-18T01:35:42;38.10;;;16.70;;
59093;SDS011;44880;52.814;18.270;2022-12-18T01:38:11;44.10;;;17.80;;
59093;SDS011;44880;52.814;18.270;2022-12-18T01:40:41;40.90;;;17.60;;
59093;SDS011;44880;52.814;18.270;2022-12-18T01:43:10;42.30;;;15.50;;
59093;SDS011;44880;52.814;18.270;2022-12-18T01:45:40;40.50;;;16.50;;
59093;SDS011;44880;52.814;18.270;2022-12-18T01:48:09;48.00;;;18.60;;
59093;SDS011;44880;52.814;18.270;2022-12-18T01:50:39;42.90;;;17.40;;
59093;SDS011;44880;52.814;18.270;2022-12-18T01:53:11;35.20;;;15.50;;
59093;SDS011;44880;52.814;18.270;2022-12-18T01:55:42;39.10;;;16.90;;
59093;SDS011;44880;52.814;18.270;2022-12-18T01:58:21;41.00;;;18.50;;
59093;SDS011;44880;52.814;18.270;2022-12-18T02:00:53;45.00;;;18.90;;
59093;SDS011;44880;52.814;18.270;2022-12-18T02:03:23;48.30;;;20.20;;
59093;SDS011;44880;52.814;18.270;2022-12-18T02:05:55;45.50;;;18.80;;
59093;SDS011;44880;52.814;18.270;2022-12-18T02:08:30;41.40;;;17.70;;
59093;SDS011;44880;52.814;18.270;2022-12-18T02:11:05;42.50;;;17.20;;
59093;SDS011;44880;52.814;18.270;2022-12-18T02:13:41;50.20;;;19.70;;
59093;SDS011;44880;52.814;18.270;2022-12-18T02:16:16;56.30;;;21.30;;
59093;SDS011;44880;52.814;18.270;2022-12-18T02:18:50;52.80;;;20.80;;
59093;SDS011;44880;52.814;18.270;2022-12-18T02:23:52;57.40;;;20.70;;
59093;SDS011;44880;52.814;18.270;2022-12-18T02:26:28;49.30;;;20.60;;
59093;SDS011;44880;52.814;18.270;2022-12-18T02:29:00;51.70;;;19.10;;
59093;SDS011;44880;52.814;18.270;2022-12-18T02:31:34;54.80;;;20.90;;
59093;SDS011;44880;52.814;18.270;2022-12-18T02:34:07;52.90;;;21.60;;
59093;SDS011;44880;52.814;18.270;2022-12-18T02:36:40;58.70;;;21.40;;
59093;SDS011;44880;52.814;18.270;2022-12-18T02:39:11;50.60;;;20.80;;
59093;SDS011;44880;52.814;18.270;2022-12-18T02:41:46;48.10;;;19.30;;
59093;SDS011;44880;52.814;18.270;2022-12-18T02:44:15;46.30;;;20.00;;
59093;SDS011;44880;52.814;18.270;2022-12-18T02:46:44;53.60;;;21.00;;
59093;SDS011;44880;52.814;18.270;2022-12-18T02:49:21;46.10;;;17.40;;
59093;SDS011;44880;52.814;18.270;2022-12-18T02:52:01;52.20;;;20.40;;
59093;SDS011;44880;52.814;18.270;2022-12-18T02:54:37;49.90;;;20.10;;
59093;SDS011;44880;52.814;18.270;2022-12-18T02:57:15;58.60;;;21.80;;
59093;SDS011;44880;52.814;18.270;2022-12-18T02:59:47;51.60;;;21.00;;
59093;SDS011;44880;52.814;18.270;2022-12-18T03:02:22;56.10;;;19.70;;
59093;SDS011;44880;52.814;18.270;2022-12-18T03:04:56;48.70;;;19.10;;
59093;SDS011;44880;52.814;18.270;2022-12-18T03:07:33;50.20;;;19.70;;
59093;SDS011;44880;52.814;18.270;2022-12-18T03:10:08;44.90;;;18.60;;
59093;SDS011;44880;52.814;18.270;2022-12-18T03:12:41;43.50;;;18.20;;
59093;SDS011;44880;52.814;18.270;2022-12-18T03:15:13;48.30;;;18.50;;
59093;SDS011;44880;52.814;18.270;2022-12-18T03:17:45;53.30;;;21.90;;
59093;SDS011;44880;52.814;18.270;2022-12-18T03:20:17;50.30;;;20.20;;
59093;SDS011;44880;52.814;18.270;2022-12-18T03:22:49;46.60;;;19.20;;
59093;SDS011;44880;52.814;18.270;2022-12-18T03:25:21;46.10;;;18.00;;
59093;SDS011;44880;52.814;18.270;2022-12-18T03:27:52;47.60;;;18.60;;
59093;SDS011;44880;52.814;18.270;2022-12-18T03:30:24;49.10;;;19.30;;
59093;SDS011;44880;52.814;18.270;2022-12-18T03:32:58;48.70;;;19.70;;
59093;SDS011;44880;52.814;18.270;2022-12-18T03:35:33;48.30;;;18.30;;
59093;SDS011;44880;52.814;18.270;2022-12-18T03:38:05;51.40;;;21.10;;
59093;SDS011;44880;52.814;18.270;2022-12-18T03:40:38;54.10;;;20.10;;
59093;SDS011;44880;52.814;18.270;2022-12-18T03:43:15;44.10;;;17.90;;
59093;SDS011;44880;52.814;18.270;2022-12-18T03:45:50;49.40;;;18.20;;
59093;SDS011;44880;52.814;18.270;2022-12-18T03:48:23;42.20;;;17.30;;
59093;SDS011;44880;52.814;18.270;2022-12-18T03:50:56;45.20;;;18.10;;
59093;SDS011;44880;52.814;18.270;2022-12-18T03:53:34;44.50;;;18.10;;
59093;SDS011;44880;52.814;18.270;2022-12-18T03:56:06;45.10;;;18.40;;
59093;SDS011;44880;52.814;18.270;2022-12-18T03:58:38;53.80;;;18.80;;
59093;SDS011;44880;52.814;18.270;2022-12-18T04:01:17;48.60;;;19.80;;
59093;SDS011;44880;52.814;18.270;2022-12-18T04:03:48;57.10;;;22.90;;
59093;SDS011;44880;52.814;18.270;2022-12-18T04:06:19;48.00;;;19.00;;
59093;SDS011;44880;52.814;18.270;2022-12-18T04:08:48;46.50;;;18.20;;
59093;SDS011;44880;52.814;18.270;2022-12-18T04:13:48;46.40;;;19.10;;
59093;SDS011;44880;52.814;18.270;2022-12-18T04:16:21;46.40;;;18.50;;
59093;SDS011;44880;52.814;18.270;2022-12-18T04:18:53;46.90;;;17.10;;
59093;SDS011;44880;52.814;18.270;2022-12-18T04:21:22;48.00;;;19.50;;
59093;SDS011;44880;52.814;18.270;2022-12-18T04:23:52;68.50;;;25.40;;
59093;SDS011;44880;52.814;18.270;2022-12-18T04:26:22;57.00;;;21.20;;
59093;SDS011;44880;52.814;18.270;2022-12-18T04:29:10;49.60;;;19.60;;
59093;SDS011;44880;52.814;18.270;2022-12-18T04:31:40;49.80;;;18.40;;
59093;SDS011;44880;52.814;18.270;2022-12-18T04:34:09;43.60;;;18.50;;
59093;SDS011;44880;52.814;18.270;2022-12-18T04:36:43;47.30;;;18.70;;
59093;SDS011;44880;52.814;18.270;2022-12-18T04:39:13;49.30;;;18.30;;
59093;SDS011;44880;52.814;18.270;2022-12-18T04:41:45;53.30;;;20.20;;
59093;SDS011;44880;52.814;18.270;2022-12-18T04:44:14;50.30;;;19.60;;
59093;SDS011;44880;52.814;18.270;2022-12-18T04:46:43;60.10;;;25.80;;
59093;SDS011;44880;52.814;18.270;2022-12-18T04:49:13;54.20;;;21.10;;
59093;SDS011;44880;52.814;18.270;2022-12-18T04:51:42;64.40;;;22.60;;
59093;SDS011;44880;52.814;18.270;2022-12-18T04:54:11;61.40;;;21.90;;
59093;SDS011;44880;52.814;18.270;2022-12-18T04:56:39;57.80;;;19.90;;
59093;SDS011;44880;52.814;18.270;2022-12-18T04:59:09;49.80;;;19.30;;
59093;SDS011;44880;52.814;18.270;2022-12-18T05:01:38;54.80;;;19.40;;
59093;SDS011;44880;52.814;18.270;2022-12-18T05:04:07;52.60;;;20.60;;
59093;SDS011;44880;52.814;18.270;2022-12-18T05:06:36;50.70;;;19.40;;
59093;SDS011;44880;52.814;18.270;2022-12-18T05:09:06;53.10;;;20.60;;
59093;SDS011;44880;52.814;18.270;2022-12-18T05:11:38;57.50;;;19.20;;
59093;SDS011;44880;52.814;18.270;2022-12-18T05:14:08;53.80;;;19.90;;
59093;SDS011;44880;52.814;18.270;2022-12-18T05:16:37;61.00;;;21.50;;
59093;SDS011;44880;52.814;18.270;2022-12-18T05:19:07;59.60;;;22.20;;
59093;SDS011;44880;52.814;18.270;2022-12-18T05:21:37;52.00;;;21.90;;
59093;SDS011;44880;52.814;18.270;2022-12-18T05:24:06;49.10;;;19.30;;
59093;SDS011;44880;52.814;18.270;2022-12-18T05:26:36;49.90;;;19.60;;
59093;SDS011;44880;52.814;18.270;2022-12-18T05:29:05;47.90;;;19.10;;
59093;SDS011;44880;52.814;18.270;2022-12-18T05:31:35;48.40;;;20.40;;
59093;SDS011;44880;52.814;18.270;2022-12-18T05:34:04;48.30;;;18.40;;
59093;SDS011;44880;52.814;18.270;2022-12-18T05:36:33;49.90;;;20.50;;
59093;SDS011;44880;52.814;18.270;2022-12-18T05:39:03;61.00;;;23.20;;
59093;SDS011;44880;52.814;18.270;2022-12-18T05:41:33;59.90;;;24.30;;
59093;SDS011;44880;52.814;18.270;2022-12-18T05:44:03;55.10;;;21.80;;
59093;SDS011;44880;52.814;18.270;2022-12-18T05:46:32;50.20;;;18.90;;
59093;SDS011;44880;52.814;18.270;2022-12-18T05:49:02;54.10;;;21.10;;
59093;SDS011;44880;52.814;18.270;2022-12-18T05:51:31;53.10;;;20.60;;
59093;SDS011;44880;52.814;18.270;2022-12-18T05:54:00;52.10;;;20.00;;
59093;SDS011;44880;52.814;18.270;2022-12-18T05:56:30;45.70;;;19.00;;
59093;SDS011;44880;52.814;18.270;2022-12-18T05:58:59;50.60;;;18.90;;
59093;SDS011;44880;52.814;18.270;2022-12-18T06:01:29;53.50;;;21.30;;
59093;SDS011;44880;52.814;18.270;2022-12-18T06:03:58;51.90;;;19.60;;
59093;SDS011;44880;52.814;18.270;2022-12-18T06:06:28;44.60;;;18.50;;
59093;SDS011;44880;52.814;18.270;2022-12-18T06:08:57;45.80;;;17.10;;
59093;SDS011;44880;52.814;18.270;2022-12-18T06:11:28;41.80;;;17.00;;
59093;SDS011;44880;52.814;18.270;2022-12-18T06:13:57;40.80;;;17.10;;
59093;SDS011;44880;52.814;18.270;2022-12-18T06:16:27;44.10;;;17.00;;
59093;SDS011;44880;52.814;18.270;2022-12-18T06:18:57;41.10;;;16.00;;
59093;SDS011;44880;52.814;18.270;2022-12-18T06:21:26;38.50;;;16.90;;
59093;SDS011;44880;52.814;18.270;2022-12-18T06:23:56;43.70;;;17.10;;
59093;SDS011;44880;52.814;18.270;2022-12-18T06:26:26;42.80;;;15.30;;
59093;SDS011;44880;52.814;18.270;2022-12-18T06:28:55;52.10;;;18.40;;
59093;SDS011;44880;52.814;18.270;2022-12-18T06:31:25;48.70;;;16.30;;
59093;SDS011;44880;52.814;18.270;2022-12-18T06:33:55;42.60;;;15.20;;
59093;SDS011;44880;52.814;18.270;2022-12-18T06:36:24;46.80;;;16.60;;
59093;SDS011;44880;52.814;18.270;2022-12-18T06:38:56;46.80;;;16.80;;
59093;SDS011;44880;52.814;18.270;2022-12-18T06:41:27;50.80;;;18.40;;
59093;SDS011;44880;52.814;18.270;2022-12-18T06:43:58;47.90;;;18.30;;
59093;SDS011;44880;52.814;18.270;2022-12-18T06:46:27;75.20;;;24.40;;
59093;SDS011;44880;52.814;18.270;2022-12-18T06:48:57;77.20;;;25.40;;
59093;SDS011;44880;52.814;18.270;2022-12-18T06:51:26;87.20;;;25.90;;
59093;SDS011;44880;52.814;18.270;2022-12-18T06:53:55;89.90;;;25.30;;
59093;SDS011;44880;52.814;18.270;2022-12-18T06:56:24;91.60;;;27.90;;
59093;SDS011;44880;52.814;18.270;2022-12-18T06:58:53;68.90;;;24.00;;
59093;SDS011;44880;52.814;18.270;2022-12-18T07:01:22;64.10;;;24.80;;
59093;SDS011;44880;52.814;18.270;2022-12-18T07:03:52;64.20;;;21.80;;
59093;SDS011;44880;52.814;18.270;2022-12-18T07:06:22;58.70;;;21.40;;
59093;SDS011;44880;52.814;18.270;2022-12-18T07:08:52;65.40;;;22.70;;
59093;SDS011;44880;52.814;18.270;2022-12-18T07:11:22;69.50;;;22.30;;
59093;SDS011;44880;52.814;18.270;2022-12-18T07:13:52;69.80;;;22.70;;
59093;SDS011;44880;52.814;18.270;2022-12-18T07:16:21;78.20;;;25.20;;
59093;SDS011;44880;52.814;18.270;2022-12-18T07:18:50;111.80;;;32.30;;
59093;SDS011;44880;52.814;18.270;2022-12-18T07:21:20;157.80;;;43.30;;
59093;SDS011;44880;52.814;18.270;2022-12-18T07:23:50;181.30;;;46.10;;
59093;SDS011;44880;52.814;18.270;2022-12-18T07:26:20;132.30;;;36.20;;
59093;SDS011;44880;52.814;18.270;2022-12-18T07:28:50;101.50;;;29.30;;
59093;SDS011;44880;52.814;18.270;2022-12-18T07:31:21;114.80;;;34.90;;
59093;SDS011;44880;52.814;18.270;2022-12-18T07:33:50;121.60;;;34.90;;
59093;SDS011;44880;52.814;18.270;2022-12-18T07:36:22;110.30;;;33.40;;
59093;SDS011;44880;52.814;18.270;2022-12-18T07:41:22;86.00;;;26.30;;
59093;SDS011;44880;52.814;18.270;2022-12-18T07:43:51;82.80;;;24.30;;
59093;SDS011;44880;52.814;18.270;2022-12-18T07:46:20;99.50;;;30.50;;
59093;SDS011;44880;52.814;18.270;2022-12-18T07:48:49;128.10;;;33.80;;
59093;SDS011;44880;52.814;18.270;2022-12-18T07:51:18;115.20;;;34.30;;
59093;SDS011;44880;52.814;18.270;2022-12-18T07:53:51;81.00;;;28.00;;
59093;SDS011;44880;52.814;18.270;2022-12-18T07:56:20;77.60;;;26.10;;
59093;SDS011;44880;52.814;18.270;2022-12-18T07:58:49;83.30;;;25.70;;
59093;SDS011;44880;52.814;18.270;2022-12-18T08:01:18;55.90;;;21.10;;
59093;SDS011;44880;52.814;18.270;2022-12-18T08:03:47;61.20;;;21.70;;
59093;SDS011;44880;52.814;18.270;2022-12-18T08:06:16;71.40;;;23.30;;
59093;SDS011;44880;52.814;18.270;2022-12-18T08:08:45;63.90;;;22.90;;
59093;SDS011;44880;52.814;18.270;2022-12-18T08:11:23;102.70;;;28.60;;
59093;SDS011;44880;52.814;18.270;2022-12-18T08:13:53;108.80;;;29.60;;
59093;SDS011;44880;52.814;18.270;2022-12-18T08:16:22;97.00;;;28.70;;
59093;SDS011;44880;52.814;18.270;2022-12-18T08:18:52;108.30;;;31.20;;
59093;SDS011;44880;52.814;18.270;2022-12-18T08:21:22;105.00;;;31.60;;
59093;SDS011;44880;52.814;18.270;2022-12-18T08:23:52;89.50;;;30.60;;
59093;SDS011;44880;52.814;18.270;2022-12-18T08:26:22;97.00;;;28.80;;
59093;SDS011;44880;52.814;18.270;2022-12-18T08:28:52;91.50;;;27.10;;
59093;SDS011;44880;52.814;18.270;2022-12-18T08:31:22;88.40;;;26.90;;
59093;SDS011;44880;52.814;18.270;2022-12-18T08:33:52;82.00;;;26.90;;
59093;SDS011;44880;52.814;18.270;2022-12-18T08:36:21;79.30;;;26.10;;
59093;SDS011;44880;52.814;18.270;2022-12-18T08:38:51;70.50;;;23.30;;
59093;SDS011;44880;52.814;18.270;2022-12-18T08:41:22;68.50;;;21.00;;
59093;SDS011;44880;52.814;18.270;2022-12-18T08:43:56;62.50;;;22.20;;
59093;SDS011;44880;52.814;18.270;2022-12-18T08:46:49;84.10;;;27.30;;
59093;SDS011;44880;52.814;18.270;2022-12-18T08:49:24;73.70;;;24.00;;
59093;SDS011;44880;52.814;18.270;2022-12-18T08:52:00;64.50;;;23.80;;
59093;SDS011;44880;52.814;18.270;2022-12-18T08:54:39;78.10;;;26.10;;
59093;SDS011;44880;52.814;18.270;2022-12-18T08:57:09;92.30;;;27.30;;
59093;SDS011;44880;52.814;18.270;2022-12-18T08:59:47;70.30;;;24.30;;
59093;SDS011;44880;52.814;18.270;2022-12-18T09:02:23;70.90;;;24.70;;
59093;SDS011;44880;52.814;18.270;2022-12-18T09:05:03;74.00;;;26.40;;
59093;SDS011;44880;52.814;18.270;2022-12-18T09:07:43;73.80;;;26.30;;
59093;SDS011;44880;52.814;18.270;2022-12-18T09:10:33;85.80;;;27.30;;
59093;SDS011;44880;52.814;18.270;2022-12-18T09:13:21;114.40;;;33.20;;
59093;SDS011;44880;52.814;18.270;2022-12-18T09:15:56;92.10;;;29.80;;
59093;SDS011;44880;52.814;18.270;2022-12-18T09:18:43;86.20;;;25.90;;
59093;SDS011;44880;52.814;18.270;2022-12-18T09:21:20;79.80;;;25.60;;
59093;SDS011;44880;52.814;18.270;2022-12-18T09:23:56;60.40;;;23.10;;
59093;SDS011;44880;52.814;18.270;2022-12-18T09:26:25;83.50;;;28.30;;
59093;SDS011;44880;52.814;18.270;2022-12-18T09:28:56;100.90;;;32.50;;
59093;SDS011;44880;52.814;18.270;2022-12-18T09:31:26;92.70;;;30.70;;
59093;SDS011;44880;52.814;18.270;2022-12-18T09:36:38;62.90;;;24.20;;
59093;SDS011;44880;52.814;18.270;2022-12-18T09:39:46;69.20;;;24.30;;
59093;SDS011;44880;52.814;18.270;2022-12-18T09:42:29;63.50;;;25.20;;
59093;SDS011;44880;52.814;18.270;2022-12-18T09:44:59;65.00;;;25.30;;
59093;SDS011;44880;52.814;18.270;2022-12-18T09:47:37;74.30;;;27.40;;
59093;SDS011;44880;52.814;18.270;2022-12-18T09:50:15;67.80;;;28.40;;
59093;SDS011;44880;52.814;18.270;2022-12-18T09:52:52;75.50;;;28.70;;
59093;SDS011;44880;52.814;18.270;2022-12-18T09:55:43;66.10;;;26.50;;
59093;SDS011;44880;52.814;18.270;2022-12-18T09:58:26;63.80;;;23.30;;
59093;SDS011;44880;52.814;18.270;2022-12-18T10:00:58;68.60;;;26.60;;
59093;SDS011;44880;52.814;18.270;2022-12-18T10:04:18;53.40;;;24.20;;
59093;SDS011;44880;52.814;18.270;2022-12-18T10:06:59;60.20;;;25.10;;
59093;SDS011;44880;52.814;18.270;2022-12-18T10:09:33;72.20;;;26.60;;
59093;SDS011;44880;52.814;18.270;2022-12-18T10:12:12;67.60;;;26.80;;
59093;SDS011;44880;52.814;18.270;2022-12-18T10:14:55;63.70;;;25.40;;
59093;SDS011;44880;52.814;18.270;2022-12-18T10:17:37;51.70;;;23.40;;
59093;SDS011;44880;52.814;18.270;2022-12-18T10:20:20;48.40;;;20.80;;
59093;SDS011;44880;52.814;18.270;2022-12-18T10:23:00;54.90;;;22.10;;
59093;SDS011;44880;52.814;18.270;2022-12-18T10:25:42;58.10;;;23.00;;
59093;SDS011;44880;52.814;18.270;2022-12-18T10:28:19;61.60;;;25.90;;
59093;SDS011;44880;52.814;18.270;2022-12-18T10:30:53;57.80;;;23.50;;
59093;SDS011;44880;52.814;18.270;2022-12-18T10:33:27;60.90;;;24.70;;
59093;SDS011;44880;52.814;18.270;2022-12-18T10:36:02;57.60;;;22.60;;
59093;SDS011;44880;52.814;18.270;2022-12-18T10:38:34;63.50;;;23.40;;
59093;SDS011;44880;52.814;18.270;2022-12-18T10:41:26;75.20;;;26.90;;
59093;SDS011;44880;52.814;18.270;2022-12-18T10:44:14;105.20;;;35.20;;
59093;SDS011;44880;52.814;18.270;2022-12-18T10:47:06;88.00;;;32.10;;
59093;SDS011;44880;52.814;18.270;2022-12-18T10:49:49;59.70;;;23.20;;
59093;SDS011;44880;52.814;18.270;2022-12-18T10:52:57;88.80;;;28.90;;
59093;SDS011;44880;52.814;18.270;2022-12-18T10:55:31;140.90;;;41.50;;
59093;SDS011;44880;52.814;18.270;2022-12-18T10:58:44;128.90;;;40.20;;
59093;SDS011;44880;52.814;18.270;2022-12-18T11:01:45;117.40;;;39.90;;
59093;SDS011;44880;52.814;18.270;2022-12-18T11:04:26;114.80;;;37.20;;
59093;SDS011;44880;52.814;18.270;2022-12-18T11:06:59;101.80;;;36.00;;
59093;SDS011;44880;52.814;18.270;2022-12-18T11:12:33;132.00;;;43.70;;
59093;SDS011;44880;52.814;18.270;2022-12-18T11:15:04;87.20;;;30.20;;
59093;SDS011;44880;52.814;18.270;2022-12-18T11:18:00;76.40;;;27.90;;
59093;SDS011;44880;52.814;18.270;2022-12-18T11:21:00;69.00;;;26.80;;
59093;SDS011;44880;52.814;18.270;2022-12-18T11:23:35;69.70;;;25.40;;
59093;SDS011;44880;52.814;18.270;2022-12-18T11:26:05;70.20;;;27.80;;
59093;SDS011;44880;52.814;18.270;2022-12-18T11:28:36;77.80;;;29.40;;
59093;SDS011;44880;52.814;18.270;2022-12-18T11:31:21;71.50;;;26.60;;
59093;SDS011;44880;52.814;18.270;2022-12-18T11:33:56;80.70;;;30.90;;
59093;SDS011;44880;52.814;18.270;2022-12-18T11:36:31;74.00;;;27.60;;
59093;SDS011;44880;52.814;18.270;2022-12-18T11:39:11;71.60;;;28.80;;
59093;SDS011;44880;52.814;18.270;2022-12-18T11:41:43;73.30;;;26.10;;
59093;SDS011;44880;52.814;18.270;2022-12-18T11:44:46;74.90;;;26.20;;
59093;SDS011;44880;52.814;18.270;2022-12-18T11:47:21;60.50;;;25.10;;
59093;SDS011;44880;52.814;18.270;2022-12-18T11:50:00;65.50;;;23.80;;
59093;SDS011;44880;52.814;18.270;2022-12-18T11:52:38;67.10;;;24.20;;
59093;SDS011;44880;52.814;18.270;2022-12-18T11:55:19;64.90;;;24.20;;
59093;SDS011;44880;52.814;18.270;2022-12-18T11:58:03;64.40;;;24.10;;
59093;SDS011;44880;52.814;18.270;2022-12-18T12:01:02;71.60;;;24.80;;
59093;SDS011;44880;52.814;18.270;2022-12-18T12:06:57;70.10;;;25.00;;
59093;SDS011;44880;52.814;18.270;2022-12-18T12:09:52;67.10;;;24.90;;
59093;SDS011;44880;52.814;18.270;2022-12-18T12:12:34;68.60;;;25.20;;
59093;SDS011;44880;52.814;18.270;2022-12-18T12:15:22;57.00;;;22.40;;
59093;SDS011;44880;52.814;18.270;2022-12-18T12:17:55;59.90;;;21.80;;
59093;SDS011;44880;52.814;18.270;2022-12-18T12:26:14;63.20;;;22.60;;
59093;SDS011;44880;52.814;18.270;2022-12-18T12:29:17;62.60;;;23.50;;
59093;SDS011;44880;52.814;18.270;2022-12-18T12:32:03;63.50;;;24.90;;
59093;SDS011;44880;52.814;18.270;2022-12-18T12:34:39;101.30;;;37.60;;
59093;SDS011;44880;52.814;18.270;2022-12-18T12:37:22;91.40;;;31.90;;
59093;SDS011;44880;52.814;18.270;2022-12-18T12:40:10;78.10;;;28.30;;
59093;SDS011;44880;52.814;18.270;2022-12-18T12:42:53;89.10;;;31.90;;
59093;SDS011;44880;52.814;18.270;2022-12-18T12:45:46;114.40;;;38.00;;
59093;SDS011;44880;52.814;18.270;2022-12-18T12:48:20;88.60;;;31.10;;
59093;SDS011;44880;52.814;18.270;2022-12-18T12:50:57;115.80;;;37.30;;
59093;SDS011;44880;52.814;18.270;2022-12-18T12:53:29;117.30;;;39.70;;
59093;SDS011;44880;52.814;18.270;2022-12-18T12:56:01;116.30;;;39.10;;
59093;SDS011;44880;52.814;18.270;2022-12-18T12:58:41;75.60;;;28.80;;
59093;SDS011;44880;52.814;18.270;2022-12-18T13:01:27;79.10;;;25.20;;
59093;SDS011;44880;52.814;18.270;2022-12-18T13:04:22;55.80;;;21.70;;
59093;SDS011;44880;52.814;18.270;2022-12-18T13:10:50;59.30;;;23.20;;
59093;SDS011;44880;52.814;18.270;2022-12-18T13:13:53;55.20;;;22.10;;
59093;SDS011;44880;52.814;18.270;2022-12-18T13:16:32;67.40;;;26.10;;
59093;SDS011;44880;52.814;18.270;2022-12-18T13:19:18;61.40;;;23.60;;
59093;SDS011;44880;52.814;18.270;2022-12-18T13:22:12;74.30;;;25.70;;
59093;SDS011;44880;52.814;18.270;2022-12-18T13:24:49;84.00;;;28.10;;
59093;SDS011;44880;52.814;18.270;2022-12-18T13:36:30;63.20;;;23.00;;
59093;SDS011;44880;52.814;18.270;2022-12-18T13:39:25;60.10;;;24.70;;
59093;SDS011;44880;52.814;18.270;2022-12-18T13:45:46;65.20;;;24.50;;
59093;SDS011;44880;52.814;18.270;2022-12-18T13:48:30;62.70;;;23.50;;
59093;SDS011;44880;52.814;18.270;2022-12-18T13:51:08;57.80;;;22.40;;
59093;SDS011;44880;52.814;18.270;2022-12-18T13:53:46;54.00;;;18.50;;
59093;SDS011;44880;52.814;18.270;2022-12-18T13:56:22;60.00;;;20.50;;
59093;SDS011;44880;52.814;18.270;2022-12-18T13:59:12;63.60;;;22.20;;
59093;SDS011;44880;52.814;18.270;2022-12-18T14:01:49;61.70;;;21.60;;
59093;SDS011;44880;52.814;18.270;2022-12-18T14:04:25;55.90;;;19.10;;
59093;SDS011;44880;52.814;18.270;2022-12-18T14:07:04;70.00;;;23.30;;
59093;SDS011;44880;52.814;18.270;2022-12-18T14:09:35;62.50;;;22.90;;
59093;SDS011;44880;52.814;18.270;2022-12-18T14:12:11;66.80;;;25.40;;
59093;SDS011;44880;52.814;18.270;2022-12-18T14:15:03;70.30;;;23.60;;
59093;SDS011;44880;52.814;18.270;2022-12-18T14:17:38;105.00;;;33.70;;
59093;SDS011;44880;52.814;18.270;2022-12-18T14:20:13;139.40;;;40.60;;
59093;SDS011;44880;52.814;18.270;2022-12-18T14:22:44;95.40;;;32.20;;
59093;SDS011;44880;52.814;18.270;2022-12-18T14:25:17;66.00;;;25.40;;
59093;SDS011;44880;52.814;18.270;2022-12-18T14:27:48;72.10;;;27.10;;
59093;SDS011;44880;52.814;18.270;2022-12-18T14:33:03;70.00;;;25.50;;
59093;SDS011;44880;52.814;18.270;2022-12-18T14:35:34;68.40;;;26.50;;
59093;SDS011;44880;52.814;18.270;2022-12-18T14:38:15;90.30;;;28.80;;
59093;SDS011;44880;52.814;18.270;2022-12-18T14:41:01;84.90;;;29.20;;
59093;SDS011;44880;52.814;18.270;2022-12-18T14:43:33;83.00;;;29.20;;
59093;SDS011;44880;52.814;18.270;2022-12-18T14:46:03;100.20;;;33.70;;
59093;SDS011;44880;52.814;18.270;2022-12-18T14:48:36;98.20;;;31.90;;
59093;SDS011;44880;52.814;18.270;2022-12-18T14:53:42;93.80;;;32.20;;
59093;SDS011;44880;52.814;18.270;2022-12-18T14:56:19;95.30;;;31.50;;
59093;SDS011;44880;52.814;18.270;2022-12-18T14:58:50;84.70;;;31.20;;
59093;SDS011;44880;52.814;18.270;2022-12-18T15:01:23;84.50;;;29.90;;
59093;SDS011;44880;52.814;18.270;2022-12-18T15:03:56;81.30;;;29.80;;
59093;SDS011;44880;52.814;18.270;2022-12-18T15:06:32;82.40;;;27.90;;
59093;SDS011;44880;52.814;18.270;2022-12-18T15:09:21;131.70;;;37.20;;
59093;SDS011;44880;52.814;18.270;2022-12-18T15:11:56;150.80;;;39.30;;
59093;SDS011;44880;52.814;18.270;2022-12-18T15:17:25;98.20;;;32.20;;
59093;SDS011;44880;52.814;18.270;2022-12-18T15:20:00;83.70;;;28.10;;
59093;SDS011;44880;52.814;18.270;2022-12-18T15:22:38;90.20;;;32.30;;
59093;SDS011;44880;52.814;18.270;2022-12-18T15:25:23;87.40;;;31.00;;
59093;SDS011;44880;52.814;18.270;2022-12-18T15:27:59;87.80;;;27.10;;
59093;SDS011;44880;52.814;18.270;2022-12-18T15:30:37;79.40;;;27.30;;
59093;SDS011;44880;52.814;18.270;2022-12-18T15:33:22;117.90;;;36.60;;
59093;SDS011;44880;52.814;18.270;2022-12-18T15:38:32;70.00;;;24.80;;
59093;SDS011;44880;52.814;18.270;2022-12-18T15:41:13;64.50;;;23.40;;